Goiatins, Brazil
Current Conditions -  °F | °C
As of 11:00 AM on Friday 24 Oct 2014 (Local Time) from SBIZ Reporting Station
Broken Clouds Broken Clouds  
Wind Chill: 84°   Ceiling: 2200
Heat Index: 91°   Visibility: 6mi
Dew Point: 73°   Wind: 2mph
Humidity: 70%   Direction: 20°NNE
Pressure: 29.91"   Gusts: NA
Location:  7.71°S, 47.31°W
Report Text: SBIZ 241400Z 02002KT 9999 BKN022 29/23 Q1013
Loading
Personal Weather Stations






























Interactive Weather Map
Tropical Storm Tracking
New forecast layout! Learn more

10-Day Weather Forecast

Advertisements
Track Severe Weather on mobile